createdAt,value
2023-05-08T00:01:05.109Z,45.17
2023-05-08T00:03:32.316Z,8.05
2023-05-08T00:05:59.676Z,7.18
2023-05-08T00:08:26.751Z,7.20
2023-05-08T00:10:53.588Z,8.50
2023-05-08T00:13:20.812Z,9.07
2023-05-08T00:15:47.997Z,8.00
2023-05-08T00:18:14.989Z,8.02
2023-05-08T00:20:42.070Z,7.60
2023-05-08T00:23:08.940Z,6.97
2023-05-08T00:25:35.738Z,6.68
2023-05-08T00:28:02.649Z,7.07
2023-05-08T00:30:29.648Z,7.50
2023-05-08T00:32:56.661Z,6.88
2023-05-08T00:35:23.831Z,6.90
2023-05-08T00:37:50.673Z,7.20
2023-05-08T00:40:17.639Z,6.50
2023-05-08T00:42:44.552Z,7.00
2023-05-08T00:45:11.581Z,6.35
2023-05-08T00:47:38.908Z,6.80
2023-05-08T00:50:06.851Z,6.80
2023-05-08T00:52:33.974Z,7.20
2023-05-08T00:55:02.608Z,6.95
2023-05-08T00:57:32.445Z,7.75
2023-05-08T01:00:01.375Z,7.22
2023-05-08T01:02:31.555Z,7.45
2023-05-08T01:04:58.859Z,7.00
2023-05-08T01:07:26.150Z,6.32
2023-05-08T01:09:53.507Z,6.03
2023-05-08T01:12:47.743Z,6.85
2023-05-08T01:15:20.963Z,7.03
2023-05-08T01:18:08.824Z,6.63
2023-05-08T01:20:40.733Z,6.55
2023-05-08T01:23:20.099Z,6.00
2023-05-08T01:25:53.033Z,7.25
2023-05-08T01:28:35.304Z,7.65
2023-05-08T01:31:26.291Z,7.65
2023-05-08T01:33:59.188Z,7.13
2023-05-08T01:36:40.515Z,6.28
2023-05-08T01:39:22.623Z,6.75
2023-05-08T01:41:58.838Z,9.77
2023-05-08T01:44:32.037Z,6.82
2023-05-08T01:47:02.283Z,8.10
2023-05-08T01:49:38.612Z,117.68
2023-05-08T01:52:21.336Z,7.50
2023-05-08T01:54:58.804Z,5.50
2023-05-08T01:57:29.017Z,6.28
2023-05-08T01:59:59.948Z,6.80
2023-05-08T02:02:30.218Z,5.38
2023-05-08T02:04:58.360Z,4.32
2023-05-08T02:07:26.763Z,4.50
2023-05-08T02:09:55.531Z,4.85
2023-05-08T02:12:23.145Z,5.15
2023-05-08T02:14:52.999Z,3.90
2023-05-08T02:17:21.084Z,4.22
2023-05-08T02:19:49.628Z,5.40
2023-05-08T02:22:18.220Z,5.55
2023-05-08T02:24:46.580Z,4.70
2023-05-08T02:27:14.815Z,5.25
2023-05-08T02:29:42.843Z,4.88
2023-05-08T02:32:10.397Z,5.28
2023-05-08T02:34:40.944Z,5.10
2023-05-08T02:37:13.536Z,7.10
2023-05-08T02:39:42.639Z,5.43
2023-05-08T02:42:09.934Z,4.50
2023-05-08T02:44:37.132Z,2.83
2023-05-08T02:47:22.268Z,3.17
2023-05-08T02:49:53.362Z,4.68
2023-05-08T02:52:25.118Z,3.63
2023-05-08T02:54:57.521Z,3.55
2023-05-08T02:57:37.669Z,3.30
2023-05-08T03:00:14.230Z,3.03
2023-05-08T03:02:48.033Z,2.50
2023-05-08T03:05:24.553Z,2.83
2023-05-08T03:07:54.734Z,2.95
2023-05-08T03:10:25.228Z,3.50
2023-05-08T03:12:56.021Z,3.00
2023-05-08T03:15:44.793Z,3.67
2023-05-08T03:18:20.367Z,4.57
2023-05-08T03:20:51.161Z,6.10
2023-05-08T03:23:21.663Z,6.28
2023-05-08T03:25:48.825Z,7.27
2023-05-08T03:28:19.408Z,6.47
2023-05-08T03:30:47.095Z,6.67
2023-05-08T03:33:17.618Z,13.75
2023-05-08T03:35:46.367Z,10.40
2023-05-08T03:38:13.678Z,6.60
2023-05-08T03:40:42.820Z,6.60
2023-05-08T03:43:12.083Z,146.98
2023-05-08T03:45:41.060Z,340.27
2023-05-08T03:48:09.640Z,111.13
2023-05-08T03:50:38.611Z,4.30
2023-05-08T03:53:08.543Z,4.38
2023-05-08T03:55:36.466Z,99.35
2023-05-08T03:58:24.590Z,21.07
2023-05-08T04:01:13.718Z,4.00
2023-05-08T04:03:52.985Z,4.20
2023-05-08T04:06:30.682Z,4.85
2023-05-08T04:09:22.116Z,5.10
2023-05-08T04:12:14.352Z,6.15
2023-05-08T04:14:49.745Z,6.50
2023-05-08T04:17:30.970Z,13.95
2023-05-08T04:20:04.467Z,244.10
2023-05-08T04:22:33.932Z,346.17
2023-05-08T04:25:04.480Z,210.82
2023-05-08T04:27:31.864Z,245.80
2023-05-08T04:29:59.192Z,265.40
2023-05-08T04:32:27.525Z,178.85
2023-05-08T04:34:55.550Z,176.65
2023-05-08T04:37:27.891Z,189.35
2023-05-08T04:39:57.231Z,131.65
2023-05-08T04:42:25.987Z,142.05
2023-05-08T04:44:54.918Z,131.90
2023-05-08T04:47:22.307Z,44.17
2023-05-08T04:49:49.165Z,192.60
2023-05-08T04:52:16.287Z,293.30
2023-05-08T04:54:43.250Z,246.25
2023-05-08T04:57:10.653Z,341.52
2023-05-08T04:59:37.583Z,184.88
2023-05-08T05:02:08.213Z,328.27
2023-05-08T05:04:36.791Z,226.68
2023-05-08T05:07:04.749Z,200.25
2023-05-08T05:09:35.122Z,315.17
2023-05-08T05:12:01.936Z,230.10
2023-05-08T05:14:30.683Z,245.17
2023-05-08T05:16:58.175Z,307.05
2023-05-08T05:19:25.517Z,353.10
2023-05-08T05:21:52.733Z,184.15
2023-05-08T05:24:19.802Z,332.15
2023-05-08T05:26:46.626Z,306.92
2023-05-08T05:29:13.517Z,272.45
2023-05-08T05:31:40.612Z,363.88
2023-05-08T05:34:08.091Z,340.77
2023-05-08T05:36:35.331Z,275.30
2023-05-08T05:39:03.249Z,168.27
2023-05-08T05:41:30.748Z,274.37
2023-05-08T05:43:57.908Z,212.63
2023-05-08T05:46:32.581Z,170.88
2023-05-08T05:49:02.104Z,141.40
2023-05-08T05:51:29.534Z,83.70
2023-05-08T05:53:57.275Z,78.05
2023-05-08T05:56:25.332Z,49.45
2023-05-08T05:58:52.687Z,45.67
2023-05-08T06:01:20.033Z,53.78
2023-05-08T06:03:47.634Z,48.20
2023-05-08T06:06:14.641Z,64.33
2023-05-08T06:08:41.803Z,106.10
2023-05-08T06:11:08.802Z,87.30
2023-05-08T06:13:36.006Z,74.70
2023-05-08T06:16:02.982Z,107.50
2023-05-08T06:18:30.299Z,171.95
2023-05-08T06:20:58.387Z,59.83
2023-05-08T06:23:26.176Z,160.93
2023-05-08T06:25:54.095Z,111.13
2023-05-08T06:28:22.575Z,137.25
2023-05-08T06:30:49.584Z,112.90
2023-05-08T06:33:16.578Z,39.78
2023-05-08T06:35:47.639Z,61.77
2023-05-08T06:38:14.939Z,44.45
2023-05-08T06:40:43.895Z,39.08
2023-05-08T06:43:11.519Z,44.97
2023-05-08T06:45:38.667Z,50.28
2023-05-08T06:48:06.133Z,55.47
2023-05-08T06:50:33.566Z,56.13
2023-05-08T06:53:00.603Z,57.77
2023-05-08T06:55:27.540Z,60.20
2023-05-08T06:57:54.276Z,61.55
2023-05-08T07:00:21.271Z,65.70
2023-05-08T07:02:48.110Z,67.70
2023-05-08T07:05:15.529Z,68.20
2023-05-08T07:07:42.939Z,68.13
2023-05-08T07:10:10.211Z,73.38
2023-05-08T07:12:37.284Z,73.65
2023-05-08T07:15:13.969Z,69.07
2023-05-08T07:17:45.198Z,83.68
2023-05-08T07:20:12.336Z,83.73
2023-05-08T07:22:39.256Z,93.25
2023-05-08T07:25:06.717Z,91.45
2023-05-08T07:27:33.486Z,96.53
2023-05-08T07:30:04.114Z,105.55
2023-05-08T07:32:33.785Z,92.90
2023-05-08T07:35:02.708Z,92.93
2023-05-08T07:37:29.639Z,99.00
2023-05-08T07:39:56.543Z,95.47
2023-05-08T07:42:23.529Z,94.70
2023-05-08T07:44:54.858Z,93.57
2023-05-08T07:47:22.567Z,89.03
2023-05-08T07:49:49.583Z,94.53
2023-05-08T07:52:16.699Z,102.95
2023-05-08T07:54:43.917Z,105.82
2023-05-08T07:57:11.748Z,111.45
2023-05-08T07:59:38.632Z,107.72
2023-05-08T08:02:05.659Z,118.40
2023-05-08T08:04:32.752Z,112.35
2023-05-08T08:07:02.228Z,126.93
2023-05-08T08:09:29.215Z,122.82
2023-05-08T08:11:56.017Z,112.05
2023-05-08T08:14:22.955Z,110.00
2023-05-08T08:16:49.882Z,111.28
2023-05-08T08:19:16.736Z,123.25
2023-05-08T08:21:44.488Z,105.10
2023-05-08T08:24:11.294Z,123.45
2023-05-08T08:26:38.161Z,111.18
2023-05-08T08:29:05.025Z,115.60
2023-05-08T08:31:31.913Z,122.75
2023-05-08T08:33:58.770Z,119.13
2023-05-08T08:36:25.626Z,123.82
2023-05-08T08:38:53.012Z,126.25
2023-05-08T08:41:19.872Z,135.07
2023-05-08T08:43:46.752Z,119.57
2023-05-08T08:46:15.426Z,117.47
2023-05-08T08:48:47.269Z,103.63
2023-05-08T08:51:31.332Z,105.65
2023-05-08T08:54:05.945Z,106.50
2023-05-08T08:56:33.493Z,115.30
2023-05-08T08:59:01.962Z,118.55
2023-05-08T09:01:30.283Z,138.30
2023-05-08T09:03:59.450Z,105.05
2023-05-08T09:06:27.708Z,99.33
2023-05-08T09:08:58.495Z,115.03
2023-05-08T09:11:25.902Z,113.93
2023-05-08T09:13:52.815Z,111.40
2023-05-08T09:16:19.807Z,110.82
2023-05-08T09:18:46.764Z,118.60
2023-05-08T09:21:13.793Z,109.40
2023-05-08T09:24:00.962Z,112.75
2023-05-08T09:26:28.684Z,114.55
2023-05-08T09:29:16.108Z,106.85
2023-05-08T09:31:51.692Z,105.53
2023-05-08T09:34:29.882Z,98.97
2023-05-08T09:37:14.894Z,98.78
2023-05-08T09:39:43.360Z,102.22
2023-05-08T09:42:10.300Z,97.55
2023-05-08T09:44:50.175Z,96.38
2023-05-08T09:47:20.516Z,96.93
2023-05-08T09:50:03.884Z,93.13
2023-05-08T09:52:32.054Z,90.18
2023-05-08T09:55:00.565Z,93.97
2023-05-08T09:57:28.394Z,100.13
2023-05-08T10:00:28.720Z,91.38
2023-05-08T10:03:03.374Z,97.07
2023-05-08T10:05:32.718Z,95.35
2023-05-08T10:08:18.271Z,98.07
2023-05-08T10:10:45.275Z,100.90
2023-05-08T10:13:12.149Z,98.97
2023-05-08T10:15:44.002Z,99.47
2023-05-08T10:18:12.183Z,95.88
2023-05-08T10:20:40.684Z,90.45
2023-05-08T10:23:11.899Z,94.90
2023-05-08T10:25:45.259Z,100.40
2023-05-08T10:28:33.001Z,102.65
2023-05-08T10:31:05.610Z,101.93
2023-05-08T10:33:34.708Z,99.68
2023-05-08T10:36:02.009Z,96.70
2023-05-08T10:38:30.992Z,92.70
2023-05-08T10:41:01.357Z,95.72
2023-05-08T10:43:31.077Z,95.07
2023-05-08T10:46:02.346Z,85.93
2023-05-08T10:48:45.297Z,84.38
2023-05-08T10:51:52.489Z,83.15
2023-05-08T10:54:26.633Z,84.53
2023-05-08T10:57:08.157Z,71.70
2023-05-08T10:59:36.867Z,75.55
2023-05-08T11:02:08.028Z,85.30
2023-05-08T11:04:36.015Z,76.80
2023-05-08T11:07:04.445Z,74.18
2023-05-08T11:09:47.740Z,77.47
2023-05-08T11:12:22.951Z,75.60
2023-05-08T11:15:06.605Z,70.95
2023-05-08T11:17:35.803Z,77.10
2023-05-08T11:20:05.496Z,70.75
2023-05-08T11:22:33.868Z,72.47
2023-05-08T11:25:02.279Z,71.18
2023-05-08T11:27:41.274Z,69.07
2023-05-08T11:30:26.231Z,69.50
2023-05-08T11:32:59.888Z,71.03
2023-05-08T11:35:54.774Z,70.82
2023-05-08T11:38:24.404Z,60.70
2023-05-08T11:40:58.120Z,55.85
2023-05-08T11:43:38.442Z,54.53
2023-05-08T11:46:10.712Z,54.03
2023-05-08T11:48:37.577Z,60.47
2023-05-08T11:51:04.789Z,58.80
2023-05-08T11:53:33.354Z,59.20
2023-05-08T11:56:00.800Z,56.47
2023-05-08T11:58:27.711Z,60.55
2023-05-08T12:00:55.340Z,54.25
2023-05-08T12:03:25.097Z,56.05
2023-05-08T12:05:56.053Z,68.03
2023-05-08T12:08:23.186Z,63.72
2023-05-08T12:10:57.753Z,47.25
2023-05-08T12:13:25.876Z,43.88
2023-05-08T12:15:54.963Z,43.38
2023-05-08T12:18:23.600Z,42.83
2023-05-08T12:20:56.937Z,56.45
2023-05-08T12:23:25.846Z,64.47
2023-05-08T12:25:55.330Z,68.03
2023-05-08T12:28:22.883Z,56.63
2023-05-08T12:30:50.136Z,66.85
2023-05-08T12:33:17.327Z,62.70
2023-05-08T12:35:44.652Z,59.05
2023-05-08T12:38:13.599Z,65.07
2023-05-08T12:40:44.556Z,50.80
2023-05-08T12:43:11.996Z,49.97
2023-05-08T12:45:41.023Z,52.13
2023-05-08T12:48:13.065Z,40.08
2023-05-08T12:50:47.396Z,42.85
2023-05-08T12:53:18.812Z,39.05
2023-05-08T12:55:55.865Z,40.80
2023-05-08T12:58:32.043Z,42.27
2023-05-08T13:01:11.973Z,38.13
2023-05-08T13:03:40.116Z,34.13
2023-05-08T13:06:07.864Z,36.08
2023-05-08T13:08:37.101Z,37.60
2023-05-08T13:11:06.355Z,37.55
2023-05-08T13:13:35.308Z,36.63
2023-05-08T13:16:06.924Z,38.13
2023-05-08T13:18:36.130Z,37.65
2023-05-08T13:21:03.724Z,37.92
2023-05-08T13:23:31.009Z,40.97
2023-05-08T13:25:57.884Z,46.90
2023-05-08T13:28:24.842Z,45.88
2023-05-08T13:30:51.762Z,40.15
2023-05-08T13:33:18.632Z,43.78
2023-05-08T13:35:45.704Z,41.83
2023-05-08T13:38:12.558Z,46.13
2023-05-08T13:40:39.600Z,49.03
2023-05-08T13:43:06.613Z,45.53
2023-05-08T13:45:33.593Z,43.45
2023-05-08T13:48:00.552Z,46.28
2023-05-08T13:50:27.402Z,47.33
2023-05-08T13:52:55.191Z,45.22
2023-05-08T13:55:23.247Z,41.75
2023-05-08T13:57:50.844Z,39.92
2023-05-08T14:00:18.356Z,40.17
2023-05-08T14:02:45.479Z,41.60
2023-05-08T14:05:12.667Z,39.67
2023-05-08T14:07:39.910Z,40.67
2023-05-08T14:10:07.085Z,44.67
2023-05-08T14:12:36.792Z,41.45
2023-05-08T14:15:07.404Z,45.28
2023-05-08T14:17:34.456Z,42.42
2023-05-08T14:20:01.430Z,41.28
2023-05-08T14:22:28.646Z,43.15
2023-05-08T14:24:55.525Z,43.35
2023-05-08T14:27:22.378Z,44.50
2023-05-08T14:29:49.641Z,40.95
2023-05-08T14:32:16.699Z,46.92
2023-05-08T14:34:43.586Z,46.25
2023-05-08T14:37:11.539Z,41.05
2023-05-08T14:39:38.504Z,42.73
2023-05-08T14:42:22.348Z,46.75
2023-05-08T14:44:50.426Z,47.47
2023-05-08T14:47:17.560Z,46.55
2023-05-08T14:49:44.478Z,49.20
2023-05-08T14:52:11.366Z,47.78
2023-05-08T14:54:38.449Z,40.20
2023-05-08T14:57:05.407Z,40.92
2023-05-08T14:59:32.251Z,41.92
2023-05-08T15:01:59.159Z,44.08
2023-05-08T15:04:26.091Z,46.17
2023-05-08T15:06:53.008Z,46.28
2023-05-08T15:09:19.832Z,49.70
2023-05-08T15:11:46.734Z,49.50
2023-05-08T15:14:13.541Z,49.47
2023-05-08T15:16:40.539Z,54.10
2023-05-08T15:19:09.335Z,52.63
2023-05-08T15:21:36.433Z,55.42
2023-05-08T15:24:03.375Z,53.85
2023-05-08T15:26:30.176Z,66.22
2023-05-08T15:28:57.197Z,65.60
2023-05-08T15:31:24.095Z,80.50
2023-05-08T15:33:51.016Z,90.68
2023-05-08T15:36:18.115Z,97.37
2023-05-08T15:38:44.891Z,104.40
2023-05-08T15:41:15.094Z,107.25
2023-05-08T15:43:43.193Z,108.63
2023-05-08T15:46:10.567Z,106.53
2023-05-08T15:48:37.497Z,115.07
2023-05-08T15:51:04.609Z,110.10
2023-05-08T15:53:33.130Z,117.25
2023-05-08T15:55:59.976Z,124.03
2023-05-08T15:58:27.679Z,123.38
2023-05-08T16:00:54.642Z,119.30
2023-05-08T16:03:21.658Z,118.57
2023-05-08T16:05:48.838Z,108.40
2023-05-08T16:08:15.892Z,114.07
2023-05-08T16:10:42.798Z,111.07
2023-05-08T16:13:09.814Z,111.82
2023-05-08T16:15:36.924Z,114.25
2023-05-08T16:18:03.960Z,107.22
2023-05-08T16:20:32.320Z,103.20
2023-05-08T16:23:00.553Z,89.45
2023-05-08T16:25:27.633Z,83.05
2023-05-08T16:27:54.520Z,66.28
2023-05-08T16:30:21.349Z,67.50
2023-05-08T16:32:48.313Z,58.40
2023-05-08T16:35:15.795Z,58.10
2023-05-08T16:37:43.439Z,56.78
2023-05-08T16:40:10.724Z,54.85
2023-05-08T16:42:37.793Z,54.83
2023-05-08T16:45:08.507Z,54.28
2023-05-08T16:47:36.041Z,51.30
2023-05-08T16:50:04.193Z,54.67
2023-05-08T16:52:32.764Z,52.55
2023-05-08T16:54:59.769Z,52.78
2023-05-08T16:57:27.567Z,52.30
2023-05-08T16:59:56.336Z,48.55
2023-05-08T17:02:23.322Z,50.45
2023-05-08T17:04:50.611Z,46.65
2023-05-08T17:07:17.999Z,51.70
2023-05-08T17:09:45.714Z,45.88
2023-05-08T17:12:12.753Z,44.90
2023-05-08T17:14:40.735Z,42.05
2023-05-08T17:17:08.033Z,43.42
2023-05-08T17:19:34.860Z,41.72
2023-05-08T17:22:02.188Z,38.30
2023-05-08T17:24:32.649Z,37.33
2023-05-08T17:26:59.792Z,37.40
2023-05-08T17:29:26.970Z,38.85
2023-05-08T17:31:54.069Z,37.42
2023-05-08T17:34:22.743Z,41.72
2023-05-08T17:36:50.040Z,35.58
2023-05-08T17:39:19.937Z,35.22
2023-05-08T17:41:48.331Z,37.20
2023-05-08T17:44:15.980Z,29.27
2023-05-08T17:46:42.974Z,33.67
2023-05-08T17:49:10.133Z,35.00
2023-05-08T17:51:37.429Z,37.83
2023-05-08T17:54:04.584Z,33.30
2023-05-08T17:56:31.951Z,59.30
2023-05-08T17:58:58.889Z,44.72
2023-05-08T18:01:26.196Z,36.08
2023-05-08T18:03:53.760Z,36.58
2023-05-08T18:06:20.943Z,35.10
2023-05-08T18:08:48.391Z,37.45
2023-05-08T18:11:24.354Z,41.03
2023-05-08T18:13:53.249Z,42.80
2023-05-08T18:16:21.710Z,38.33
2023-05-08T18:18:49.695Z,35.58
2023-05-08T18:21:16.658Z,39.38
2023-05-08T18:23:44.239Z,35.10
2023-05-08T18:26:17.512Z,43.20
2023-05-08T18:28:44.757Z,38.03
2023-05-08T18:31:13.478Z,39.30
2023-05-08T18:33:40.651Z,42.83
2023-05-08T18:36:07.556Z,42.33
2023-05-08T18:38:34.947Z,40.63
2023-05-08T18:41:03.366Z,43.93
2023-05-08T18:43:30.326Z,45.70
2023-05-08T18:45:59.095Z,42.67
2023-05-08T18:48:27.317Z,43.00
2023-05-08T18:50:58.383Z,46.85
2023-05-08T18:53:25.488Z,43.83
2023-05-08T18:55:52.943Z,48.97
2023-05-08T18:58:19.886Z,48.72
2023-05-08T19:00:46.804Z,49.67
2023-05-08T19:03:14.003Z,48.15
2023-05-08T19:05:41.930Z,47.05
2023-05-08T19:08:08.772Z,44.35
2023-05-08T19:10:35.819Z,44.27
2023-05-08T19:13:02.812Z,42.92
2023-05-08T19:15:29.671Z,47.58
2023-05-08T19:17:56.588Z,44.47
2023-05-08T19:20:23.601Z,46.97
2023-05-08T19:22:50.615Z,44.13
2023-05-08T19:25:17.613Z,49.08
2023-05-08T19:27:44.425Z,51.67
2023-05-08T19:30:12.111Z,49.78
2023-05-08T19:32:39.606Z,46.03
2023-05-08T19:35:08.210Z,46.78
2023-05-08T19:37:35.917Z,47.45
2023-05-08T19:40:02.987Z,51.45
2023-05-08T19:42:29.958Z,51.17
2023-05-08T19:44:56.774Z,54.08
2023-05-08T19:47:23.727Z,52.88
2023-05-08T19:49:51.296Z,59.15
2023-05-08T19:52:18.241Z,55.78
2023-05-08T19:54:45.721Z,55.17
2023-05-08T19:57:13.520Z,57.83
2023-05-08T19:59:40.462Z,57.50
2023-05-08T20:02:07.609Z,55.53
2023-05-08T20:04:48.552Z,58.92
2023-05-08T20:07:21.360Z,58.55
2023-05-08T20:09:48.266Z,55.13
2023-05-08T20:12:15.024Z,59.40
2023-05-08T20:14:41.942Z,56.50
2023-05-08T20:17:08.870Z,58.42
2023-05-08T20:19:35.836Z,57.47
2023-05-08T20:22:02.723Z,55.50
2023-05-08T20:24:29.736Z,59.45
2023-05-08T20:26:56.691Z,56.28
2023-05-08T20:29:24.209Z,58.03
2023-05-08T20:31:51.996Z,52.55
2023-05-08T20:34:21.692Z,54.92
2023-05-08T20:36:48.962Z,53.17
2023-05-08T20:39:15.910Z,51.65
2023-05-08T20:41:42.765Z,52.90
2023-05-08T20:44:09.752Z,49.57
2023-05-08T20:46:37.005Z,54.35
2023-05-08T20:49:04.083Z,54.20
2023-05-08T20:51:31.906Z,51.23
2023-05-08T20:53:58.879Z,54.53
2023-05-08T20:56:25.798Z,49.53
2023-05-08T20:58:52.576Z,55.58
2023-05-08T21:01:21.024Z,54.95
2023-05-08T21:03:48.158Z,54.30
2023-05-08T21:06:15.227Z,50.80
2023-05-08T21:08:42.004Z,52.87
2023-05-08T21:11:08.958Z,50.65
2023-05-08T21:13:35.825Z,53.17
2023-05-08T21:16:02.892Z,53.72
2023-05-08T21:18:29.718Z,55.20
2023-05-08T21:20:56.585Z,53.25
2023-05-08T21:23:23.405Z,54.13
2023-05-08T21:25:50.689Z,54.93
2023-05-08T21:28:17.694Z,53.60
2023-05-08T21:30:45.244Z,54.92
2023-05-08T21:33:16.338Z,57.50
2023-05-08T21:35:43.640Z,58.80
2023-05-08T21:38:12.161Z,52.50
2023-05-08T21:40:39.283Z,55.65
2023-05-08T21:43:06.276Z,61.67
2023-05-08T21:45:33.368Z,54.13
2023-05-08T21:48:00.602Z,52.22
2023-05-08T21:50:30.986Z,55.40
2023-05-08T21:52:57.852Z,57.28
2023-05-08T21:55:24.917Z,58.70
2023-05-08T21:57:52.079Z,56.47
2023-05-08T22:00:20.045Z,57.13
2023-05-08T22:02:47.070Z,54.67
2023-05-08T22:05:14.700Z,56.55
2023-05-08T22:07:41.941Z,53.25
2023-05-08T22:10:10.431Z,54.72
2023-05-08T22:12:37.545Z,61.20
2023-05-08T22:15:09.419Z,57.00
2023-05-08T22:17:36.634Z,53.20
2023-05-08T22:20:03.985Z,56.92
2023-05-08T22:22:30.947Z,59.63
2023-05-08T22:24:57.865Z,57.97
2023-05-08T22:27:24.762Z,58.17
2023-05-08T22:29:51.715Z,62.72
2023-05-08T22:32:18.717Z,60.00
2023-05-08T22:34:46.492Z,58.65
2023-05-08T22:37:13.332Z,59.30
2023-05-08T22:39:40.354Z,51.03
2023-05-08T22:42:07.277Z,63.15
2023-05-08T22:44:34.265Z,59.30
2023-05-08T22:47:01.595Z,58.65
2023-05-08T22:49:29.302Z,67.93
2023-05-08T22:51:56.234Z,63.80
2023-05-08T22:54:23.070Z,64.53
2023-05-08T22:56:49.975Z,62.25
2023-05-08T22:59:16.852Z,66.88
2023-05-08T23:01:43.779Z,69.30
2023-05-08T23:04:10.689Z,59.15
2023-05-08T23:06:37.635Z,66.43
2023-05-08T23:09:04.770Z,64.60
2023-05-08T23:11:31.807Z,63.72
2023-05-08T23:13:58.676Z,66.95
2023-05-08T23:16:25.861Z,67.45
2023-05-08T23:18:53.144Z,67.57
2023-05-08T23:21:20.056Z,66.80
2023-05-08T23:23:48.077Z,69.10
2023-05-08T23:26:15.139Z,70.97
2023-05-08T23:28:42.091Z,70.82
2023-05-08T23:31:08.986Z,74.88
2023-05-08T23:33:35.908Z,71.43
2023-05-08T23:36:02.752Z,68.50
2023-05-08T23:38:29.605Z,70.22
2023-05-08T23:40:56.426Z,71.05
2023-05-08T23:43:23.262Z,72.20
2023-05-08T23:45:50.031Z,73.97
2023-05-08T23:48:17.237Z,73.63
2023-05-08T23:50:44.110Z,70.43
2023-05-08T23:53:11.077Z,72.47
2023-05-08T23:55:38.056Z,70.97
2023-05-08T23:58:05.080Z,67.03
